createdAt,value
2023-02-26T00:00:22.104Z,2.18
2023-02-26T00:01:22.109Z,2.22
2023-02-26T00:02:22.130Z,2.18
2023-02-26T00:03:22.097Z,2.22
2023-02-26T00:04:22.052Z,2.25
2023-02-26T00:05:22.049Z,2.31
2023-02-26T00:06:22.077Z,2.32
2023-02-26T00:07:22.029Z,2.35
2023-02-26T00:08:22.009Z,2.35
2023-02-26T00:09:22.003Z,2.36
2023-02-26T00:10:21.994Z,2.32
2023-02-26T00:11:21.969Z,2.32
2023-02-26T00:12:21.965Z,2.29
2023-02-26T00:13:21.963Z,2.42
2023-02-26T00:14:21.956Z,2.42
2023-02-26T00:15:22.331Z,2.44
2023-02-26T00:16:21.921Z,2.50
2023-02-26T00:17:21.940Z,2.49
2023-02-26T00:18:21.931Z,2.46
2023-02-26T00:19:21.887Z,2.43
2023-02-26T00:20:21.866Z,2.47
2023-02-26T00:21:21.865Z,2.47
2023-02-26T00:22:21.848Z,2.50
2023-02-26T00:23:21.835Z,2.49
2023-02-26T00:24:21.851Z,2.47
2023-02-26T00:25:21.835Z,2.51
2023-02-26T00:26:21.812Z,2.60
2023-02-26T00:27:21.788Z,2.67
2023-02-26T00:28:21.786Z,2.60
2023-02-26T00:29:21.768Z,2.64
2023-02-26T00:30:21.767Z,2.64
2023-02-26T00:31:21.871Z,2.64
2023-02-26T00:32:21.875Z,2.67
2023-02-26T00:33:21.727Z,2.69
2023-02-26T00:34:21.730Z,2.65
2023-02-26T00:35:21.730Z,2.61
2023-02-26T00:36:21.749Z,2.62
2023-02-26T00:37:21.680Z,2.67
2023-02-26T00:38:21.682Z,2.61
2023-02-26T00:39:21.663Z,2.56
2023-02-26T00:40:21.650Z,2.61
2023-02-26T00:41:21.684Z,2.60
2023-02-26T00:42:21.627Z,2.53
2023-02-26T00:43:21.616Z,2.53
2023-02-26T00:44:21.598Z,2.50
2023-02-26T00:45:21.587Z,2.53
2023-02-26T00:46:21.598Z,2.53
2023-02-26T00:47:21.578Z,2.47
2023-02-26T00:48:21.561Z,2.53
2023-02-26T00:49:21.548Z,2.62
2023-02-26T00:50:21.541Z,2.72
2023-02-26T00:51:21.527Z,2.65
2023-02-26T00:52:21.527Z,2.56
2023-02-26T00:53:21.508Z,2.61
2023-02-26T00:54:21.488Z,2.62
2023-02-26T00:55:21.485Z,2.61
2023-02-26T00:56:21.468Z,2.67
2023-02-26T00:57:21.468Z,2.71
2023-02-26T00:58:21.466Z,2.69
2023-02-26T00:59:21.436Z,2.79
2023-02-26T01:00:21.426Z,2.82
2023-02-26T01:01:21.438Z,2.74
2023-02-26T01:02:21.404Z,2.71
2023-02-26T01:03:21.396Z,2.77
2023-02-26T01:04:21.409Z,2.74
2023-02-26T01:05:21.378Z,2.64
2023-02-26T01:06:21.374Z,2.67
2023-02-26T01:07:21.346Z,2.61
2023-02-26T01:08:21.333Z,2.71
2023-02-26T01:09:21.336Z,2.72
2023-02-26T01:10:21.335Z,2.75
2023-02-26T01:11:22.077Z,2.75
2023-02-26T01:12:21.283Z,2.62
2023-02-26T01:13:21.291Z,2.62
2023-02-26T01:14:21.263Z,2.68
2023-02-26T01:15:21.261Z,2.75
2023-02-26T01:16:21.264Z,2.79
2023-02-26T01:17:21.242Z,2.74
2023-02-26T01:18:21.244Z,2.68
2023-02-26T01:19:21.217Z,2.79
2023-02-26T01:20:21.202Z,2.77
2023-02-26T01:21:21.204Z,2.61
2023-02-26T01:22:21.192Z,2.57
2023-02-26T01:23:21.173Z,2.64
2023-02-26T01:24:21.163Z,2.46
2023-02-26T01:25:21.141Z,2.56
2023-02-26T01:26:21.134Z,2.54
2023-02-26T01:27:21.149Z,2.50
2023-02-26T01:28:21.110Z,2.43
2023-02-26T01:29:21.110Z,2.39
2023-02-26T01:30:21.088Z,2.43
2023-02-26T01:31:21.209Z,2.46
2023-02-26T01:32:21.167Z,2.32
2023-02-26T01:33:21.075Z,2.31
2023-02-26T01:34:21.050Z,2.33
2023-02-26T01:35:21.050Z,2.33
2023-02-26T01:36:21.047Z,2.46
2023-02-26T01:37:21.010Z,2.50
2023-02-26T01:38:21.021Z,2.51
2023-02-26T01:39:20.995Z,2.44
2023-02-26T01:40:20.980Z,2.46
2023-02-26T01:41:20.974Z,2.33
2023-02-26T01:42:20.950Z,2.38
2023-02-26T01:43:20.955Z,2.36
2023-02-26T01:44:20.956Z,2.31
2023-02-26T01:45:20.934Z,2.42
2023-02-26T01:46:20.950Z,2.49
2023-02-26T01:47:20.912Z,2.47
2023-02-26T01:48:20.894Z,2.43
2023-02-26T01:49:20.900Z,2.46
2023-02-26T01:50:20.873Z,2.36
2023-02-26T01:51:20.863Z,2.49
2023-02-26T01:52:20.852Z,2.43
2023-02-26T01:53:20.831Z,2.49
2023-02-26T01:54:21.780Z,2.43
2023-02-26T01:55:20.846Z,2.36
2023-02-26T01:56:20.811Z,2.26
2023-02-26T01:57:20.796Z,2.31
2023-02-26T01:58:20.785Z,2.31
2023-02-26T01:59:20.773Z,2.51
2023-02-26T02:00:20.771Z,2.60
2023-02-26T02:01:20.761Z,2.46
2023-02-26T02:02:20.782Z,2.61
2023-02-26T02:03:20.810Z,2.68
2023-02-26T02:04:20.712Z,2.71
2023-02-26T02:05:20.704Z,2.71
2023-02-26T02:06:20.693Z,2.80
2023-02-26T02:07:20.713Z,2.87
2023-02-26T02:08:20.674Z,2.97
2023-02-26T02:09:20.661Z,3.00
2023-02-26T02:10:20.655Z,3.03
2023-02-26T02:11:20.640Z,2.98
2023-02-26T02:12:20.629Z,2.92
2023-02-26T02:13:20.628Z,2.85
2023-02-26T02:14:20.606Z,2.80
2023-02-26T02:15:20.606Z,2.61
2023-02-26T02:16:20.591Z,2.68
2023-02-26T02:17:20.583Z,2.54
2023-02-26T02:18:20.582Z,2.49
2023-02-26T02:19:20.547Z,2.61
2023-02-26T02:20:20.537Z,2.71
2023-02-26T02:21:20.524Z,2.65
2023-02-26T02:22:20.505Z,2.54
2023-02-26T02:23:20.507Z,2.65
2023-02-26T02:24:20.503Z,2.61
2023-02-26T02:25:20.472Z,2.54
2023-02-26T02:26:20.464Z,2.42
2023-02-26T02:27:20.455Z,2.47
2023-02-26T02:28:20.442Z,2.43
2023-02-26T02:29:20.437Z,2.42
2023-02-26T02:30:20.422Z,2.38
2023-02-26T02:31:20.507Z,2.47
2023-02-26T02:32:20.491Z,2.42
2023-02-26T02:33:20.391Z,2.39
2023-02-26T02:34:20.371Z,2.32
2023-02-26T02:35:20.381Z,2.26
2023-02-26T02:36:20.351Z,2.32
2023-02-26T02:37:20.340Z,2.33
2023-02-26T02:38:20.328Z,2.25
2023-02-26T02:39:20.320Z,2.14
2023-02-26T02:40:20.312Z,2.06
2023-02-26T02:41:20.322Z,2.02
2023-02-26T02:42:20.289Z,1.92
2023-02-26T02:43:20.300Z,1.89
2023-02-26T02:44:20.259Z,1.89
2023-02-26T02:45:20.252Z,1.92
2023-02-26T02:46:20.327Z,1.94
2023-02-26T02:47:20.271Z,1.89
2023-02-26T02:48:20.220Z,1.80
2023-02-26T02:49:20.209Z,1.71
2023-02-26T02:50:20.199Z,1.70
2023-02-26T02:51:20.192Z,1.68
2023-02-26T02:52:20.177Z,1.71
2023-02-26T02:53:20.179Z,1.68
2023-02-26T02:54:20.155Z,1.59
2023-02-26T02:55:20.154Z,1.66
2023-02-26T02:56:20.129Z,1.59
2023-02-26T02:57:20.140Z,1.62
2023-02-26T02:58:20.125Z,1.53
2023-02-26T02:59:20.111Z,1.60
2023-02-26T03:00:20.088Z,1.58
2023-02-26T03:01:27.126Z,1.58
2023-02-26T03:02:20.111Z,1.52
2023-02-26T03:03:20.785Z,1.53
2023-02-26T03:04:20.068Z,1.50
2023-02-26T03:05:20.040Z,1.42
2023-02-26T03:06:20.033Z,1.35
2023-02-26T03:07:20.013Z,1.35
2023-02-26T03:08:20.000Z,1.37
2023-02-26T03:09:19.992Z,1.35
2023-02-26T03:10:19.991Z,1.24
2023-02-26T03:11:19.976Z,1.20
2023-02-26T03:12:19.957Z,1.16
2023-02-26T03:13:19.976Z,1.19
2023-02-26T03:14:19.942Z,1.19
2023-02-26T03:15:19.971Z,1.14
2023-02-26T03:16:20.022Z,1.10
2023-02-26T03:17:19.948Z,1.13
2023-02-26T03:18:19.890Z,1.08
2023-02-26T03:19:19.881Z,1.16
2023-02-26T03:20:19.861Z,1.19
2023-02-26T03:21:19.862Z,1.20
2023-02-26T03:22:19.862Z,1.06
2023-02-26T03:23:19.843Z,1.10
2023-02-26T03:24:19.824Z,1.16
2023-02-26T03:25:19.814Z,1.06
2023-02-26T03:26:19.803Z,1.02
2023-02-26T03:27:19.795Z,0.98
2023-02-26T03:28:19.803Z,0.95
2023-02-26T03:29:19.781Z,0.99
2023-02-26T03:30:19.753Z,1.08
2023-02-26T03:31:19.812Z,1.06
2023-02-26T03:32:19.858Z,1.02
2023-02-26T03:33:19.734Z,0.88
2023-02-26T03:34:19.737Z,0.99
2023-02-26T03:35:19.707Z,0.99
2023-02-26T03:36:19.695Z,0.92
2023-02-26T03:37:19.696Z,0.92
2023-02-26T03:38:19.684Z,0.94
2023-02-26T03:39:19.680Z,1.12
2023-02-26T03:40:19.682Z,1.17
2023-02-26T03:41:19.644Z,1.12
2023-02-26T03:42:19.632Z,1.17
2023-02-26T03:43:19.634Z,1.14
2023-02-26T03:44:19.612Z,1.14
2023-02-26T03:45:19.610Z,1.22
2023-02-26T03:46:19.662Z,1.19
2023-02-26T03:47:19.588Z,1.14
2023-02-26T03:48:19.574Z,1.19
2023-02-26T03:49:19.553Z,1.20
2023-02-26T03:50:19.549Z,1.24
2023-02-26T03:51:19.544Z,1.32
2023-02-26T03:52:19.544Z,1.37
2023-02-26T03:53:19.524Z,1.34
2023-02-26T03:54:19.493Z,1.32
2023-02-26T03:55:19.514Z,1.40
2023-02-26T03:56:19.472Z,1.37
2023-02-26T03:57:19.474Z,1.38
2023-02-26T03:58:19.486Z,1.40
2023-02-26T03:59:19.457Z,1.40
2023-02-26T04:00:19.445Z,1.31
2023-02-26T04:01:19.430Z,1.34
2023-02-26T04:02:19.436Z,1.38
2023-02-26T04:03:19.452Z,1.38
2023-02-26T04:04:19.482Z,1.32
2023-02-26T04:05:19.380Z,1.26
2023-02-26T04:06:19.361Z,1.23
2023-02-26T04:07:19.363Z,1.20
2023-02-26T04:08:19.340Z,1.13
2023-02-26T04:09:19.340Z,1.05
2023-02-26T04:10:19.335Z,1.05
2023-02-26T04:11:19.310Z,1.08
2023-02-26T04:12:19.300Z,1.14
2023-02-26T04:13:19.381Z,1.14
2023-02-26T04:14:19.294Z,1.01
2023-02-26T04:15:19.292Z,0.98
2023-02-26T04:16:19.330Z,0.91
2023-02-26T04:17:19.254Z,0.99
2023-02-26T04:18:19.232Z,1.08
2023-02-26T04:19:19.226Z,0.99
2023-02-26T04:20:19.209Z,0.98
2023-02-26T04:21:19.229Z,1.02
2023-02-26T04:22:19.193Z,1.01
2023-02-26T04:23:19.196Z,0.99
2023-02-26T04:24:19.169Z,1.01
2023-02-26T04:25:19.158Z,1.05
2023-02-26T04:26:19.153Z,1.08
2023-02-26T04:27:19.159Z,1.14
2023-02-26T04:28:19.124Z,1.13
2023-02-26T04:29:19.117Z,1.14
2023-02-26T04:30:19.097Z,1.19
2023-02-26T04:31:19.183Z,1.22
2023-02-26T04:32:19.091Z,1.28
2023-02-26T04:33:19.104Z,1.22
2023-02-26T04:34:19.054Z,1.08
2023-02-26T04:35:19.054Z,1.13
2023-02-26T04:36:19.033Z,1.14
2023-02-26T04:37:19.037Z,1.10
2023-02-26T04:38:19.002Z,1.05
2023-02-26T04:39:19.020Z,1.04
2023-02-26T04:40:18.981Z,0.95
2023-02-26T04:41:18.985Z,0.92
2023-02-26T04:42:18.962Z,0.86
2023-02-26T04:43:18.984Z,0.78
2023-02-26T04:44:18.960Z,0.74
2023-02-26T04:45:18.941Z,0.76
2023-02-26T04:46:18.980Z,0.78
2023-02-26T04:47:18.928Z,0.73
2023-02-26T04:48:18.924Z,0.74
2023-02-26T04:49:18.888Z,0.73
2023-02-26T04:50:18.891Z,0.74
2023-02-26T04:51:18.870Z,0.73
2023-02-26T04:52:18.905Z,0.81
2023-02-26T04:53:18.848Z,0.87
2023-02-26T04:54:18.835Z,0.94
2023-02-26T04:55:18.828Z,0.92
2023-02-26T04:56:18.829Z,0.86
2023-02-26T04:57:18.809Z,0.84
2023-02-26T04:58:18.787Z,0.78
2023-02-26T04:59:18.777Z,0.81
2023-02-26T05:00:18.767Z,0.84
2023-02-26T05:01:18.787Z,0.86
2023-02-26T05:02:18.758Z,0.80
2023-02-26T05:03:18.738Z,0.92
2023-02-26T05:04:18.787Z,1.02
2023-02-26T05:05:18.718Z,1.06
2023-02-26T05:06:18.707Z,1.05
2023-02-26T05:07:18.711Z,1.08
2023-02-26T05:08:18.679Z,1.12
2023-02-26T05:09:18.682Z,1.10
2023-02-26T05:10:18.676Z,1.16
2023-02-26T05:11:18.709Z,1.19
2023-02-26T05:12:18.649Z,1.10
2023-02-26T05:13:18.650Z,1.16
2023-02-26T05:14:18.630Z,1.19
2023-02-26T05:15:18.609Z,1.12
2023-02-26T05:16:18.669Z,1.12
2023-02-26T05:17:18.591Z,1.12
2023-02-26T05:18:18.581Z,1.06
2023-02-26T05:19:18.578Z,1.12
2023-02-26T05:20:18.550Z,1.14
2023-02-26T05:21:18.548Z,1.08
2023-02-26T05:22:18.551Z,0.96
2023-02-26T05:23:18.533Z,1.05
2023-02-26T05:24:18.539Z,1.05
2023-02-26T05:25:18.527Z,1.05
2023-02-26T05:26:18.501Z,1.13
2023-02-26T05:27:18.491Z,1.23
2023-02-26T05:28:18.475Z,1.24
2023-02-26T05:29:18.460Z,1.26
2023-02-26T05:30:18.447Z,1.17
2023-02-26T05:31:18.470Z,1.16
2023-02-26T05:32:18.461Z,1.13
2023-02-26T05:33:18.418Z,1.13
2023-02-26T05:34:18.422Z,1.08
2023-02-26T05:35:18.387Z,1.10
2023-02-26T05:36:18.399Z,1.16
2023-02-26T05:37:18.370Z,1.23
2023-02-26T05:38:18.357Z,1.20
2023-02-26T05:39:18.348Z,1.23
2023-02-26T05:40:18.337Z,1.24
2023-02-26T05:41:18.325Z,1.19
2023-02-26T05:42:18.332Z,1.28
2023-02-26T05:43:18.320Z,1.34
2023-02-26T05:44:18.296Z,1.48
2023-02-26T05:45:18.275Z,1.40
2023-02-26T05:46:18.292Z,1.28
2023-02-26T05:47:18.274Z,1.38
2023-02-26T05:48:18.244Z,1.50
2023-02-26T05:49:18.244Z,1.49
2023-02-26T05:50:18.235Z,1.58
2023-02-26T05:51:18.213Z,1.60
2023-02-26T05:52:18.214Z,1.60
2023-02-26T05:53:18.215Z,1.62
2023-02-26T05:54:18.183Z,1.63
2023-02-26T05:55:18.173Z,1.59
2023-02-26T05:56:18.151Z,1.58
2023-02-26T05:57:18.142Z,1.63
2023-02-26T05:58:18.132Z,1.71
2023-02-26T05:59:18.141Z,1.58
2023-02-26T06:00:18.118Z,1.55
2023-02-26T06:01:18.112Z,1.38
2023-02-26T06:02:18.133Z,1.41
2023-02-26T06:03:18.160Z,1.40
2023-02-26T06:04:18.072Z,1.38
2023-02-26T06:05:18.071Z,1.37
2023-02-26T06:06:18.054Z,1.35
2023-02-26T06:07:18.028Z,1.52
2023-02-26T06:08:18.020Z,1.62
2023-02-26T06:09:18.009Z,1.53
2023-02-26T06:10:17.999Z,1.52
2023-02-26T06:11:18.016Z,1.32
2023-02-26T06:12:17.981Z,1.35
2023-02-26T06:13:17.968Z,1.55
2023-02-26T06:14:17.947Z,1.58
2023-02-26T06:15:17.968Z,1.60
2023-02-26T06:16:18.039Z,1.63
2023-02-26T06:17:17.943Z,1.62
2023-02-26T06:18:17.911Z,1.28
2023-02-26T06:19:17.896Z,1.26
2023-02-26T06:20:17.888Z,1.34
2023-02-26T06:21:17.876Z,1.35
2023-02-26T06:22:17.866Z,1.28
2023-02-26T06:23:18.032Z,1.28
2023-02-26T06:24:17.848Z,1.42
2023-02-26T06:25:17.844Z,1.49
2023-02-26T06:26:17.824Z,1.35
2023-02-26T06:27:17.805Z,1.32
2023-02-26T06:28:17.814Z,1.34
2023-02-26T06:29:17.805Z,1.38
2023-02-26T06:30:17.787Z,1.48
2023-02-26T06:31:17.848Z,1.42
2023-02-26T06:32:17.861Z,1.34
2023-02-26T06:33:17.748Z,1.30
2023-02-26T06:34:17.831Z,1.14
2023-02-26T06:35:17.728Z,1.30
2023-02-26T06:36:17.856Z,1.28
2023-02-26T06:37:17.696Z,1.52
2023-02-26T06:38:17.703Z,1.66
2023-02-26T06:39:17.685Z,1.66
2023-02-26T06:40:17.690Z,1.67
2023-02-26T06:41:17.660Z,1.67
2023-02-26T06:42:19.976Z,1.58
2023-02-26T06:43:17.640Z,1.59
2023-02-26T06:44:17.639Z,1.49
2023-02-26T06:45:17.639Z,1.60
2023-02-26T06:46:17.655Z,1.68
2023-02-26T06:47:17.603Z,1.70
2023-02-26T06:48:17.595Z,1.80
2023-02-26T06:49:17.588Z,1.84
2023-02-26T06:50:17.563Z,1.81
2023-02-26T06:51:17.574Z,1.70
2023-02-26T06:52:17.551Z,1.84
2023-02-26T06:53:17.547Z,1.94
2023-02-26T06:54:17.525Z,1.99
2023-02-26T06:55:17.518Z,2.13
2023-02-26T06:56:17.497Z,2.11
2023-02-26T06:57:17.494Z,2.17
2023-02-26T06:58:17.486Z,2.07
2023-02-26T06:59:17.462Z,2.11
2023-02-26T07:00:17.571Z,1.85
2023-02-26T07:01:17.458Z,1.81
2023-02-26T07:02:17.497Z,1.95
2023-02-26T07:03:17.427Z,1.97
2023-02-26T07:04:19.764Z,1.91
2023-02-26T07:05:17.397Z,1.99
2023-02-26T07:06:26.793Z,2.14
2023-02-26T07:07:18.398Z,2.44
2023-02-26T07:08:17.368Z,2.82
2023-02-26T07:09:17.399Z,3.11
2023-02-26T07:10:17.352Z,3.25
2023-02-26T07:11:17.326Z,3.76
2023-02-26T07:12:17.325Z,3.76
2023-02-26T07:13:17.331Z,4.23
2023-02-26T07:14:17.295Z,4.62
2023-02-26T07:15:17.284Z,5.32
2023-02-26T07:16:17.265Z,5.38
2023-02-26T07:17:17.255Z,4.82
2023-02-26T07:18:17.267Z,5.10
2023-02-26T07:19:17.243Z,4.94
2023-02-26T07:20:17.227Z,4.94
2023-02-26T07:21:17.213Z,4.92
2023-02-26T07:22:17.214Z,4.63
2023-02-26T07:23:17.206Z,5.11
2023-02-26T07:24:17.199Z,5.53
2023-02-26T07:25:17.170Z,5.30
2023-02-26T07:26:17.164Z,5.28
2023-02-26T07:27:17.147Z,5.43
2023-02-26T07:28:17.145Z,5.57
2023-02-26T07:29:17.124Z,5.62
2023-02-26T07:30:17.140Z,5.89
2023-02-26T07:31:17.201Z,5.73
2023-02-26T07:32:17.179Z,5.75
2023-02-26T07:33:17.088Z,6.11
2023-02-26T07:34:17.076Z,6.26
2023-02-26T07:35:17.054Z,5.56
2023-02-26T07:36:17.069Z,5.80
2023-02-26T07:37:17.037Z,5.20
2023-02-26T07:38:19.217Z,4.78
2023-02-26T07:39:17.011Z,4.41
2023-02-26T07:40:17.003Z,4.75
2023-02-26T07:41:16.993Z,4.66
2023-02-26T07:42:17.002Z,4.45
2023-02-26T07:43:16.982Z,4.12
2023-02-26T07:44:16.949Z,3.74
2023-02-26T07:45:16.939Z,3.58
2023-02-26T07:46:16.987Z,3.48
2023-02-26T07:47:16.919Z,3.47
2023-02-26T07:48:17.681Z,3.56
2023-02-26T07:49:16.898Z,3.66
2023-02-26T07:50:16.891Z,3.31
2023-02-26T07:51:16.877Z,3.22
2023-02-26T07:52:16.871Z,3.28
2023-02-26T07:53:16.879Z,4.08
2023-02-26T07:54:16.862Z,4.45
2023-02-26T07:55:16.828Z,5.36
2023-02-26T07:56:16.817Z,6.01
2023-02-26T07:57:16.818Z,5.12
2023-02-26T07:58:16.798Z,5.08
2023-02-26T07:59:16.796Z,5.84
2023-02-26T08:00:16.777Z,6.30
2023-02-26T08:01:16.824Z,5.56
2023-02-26T08:02:16.756Z,5.20
2023-02-26T08:03:16.745Z,5.69
2023-02-26T08:04:16.783Z,6.28
2023-02-26T08:05:16.735Z,6.41
2023-02-26T08:06:16.715Z,6.64
2023-02-26T08:07:16.694Z,6.05
2023-02-26T08:08:16.685Z,5.32
2023-02-26T08:09:16.672Z,5.17
2023-02-26T08:10:16.655Z,5.33
2023-02-26T08:11:16.664Z,4.80
2023-02-26T08:12:16.634Z,3.95
2023-02-26T08:13:16.625Z,3.78
2023-02-26T08:14:16.616Z,4.02
2023-02-26T08:15:16.623Z,3.92
2023-02-26T08:16:16.640Z,3.91
2023-02-26T08:17:16.585Z,3.91
2023-02-26T08:18:16.591Z,3.94
2023-02-26T08:19:16.561Z,4.28
2023-02-26T08:20:16.563Z,4.35
2023-02-26T08:21:16.537Z,4.56
2023-02-26T08:22:16.564Z,4.24
2023-02-26T08:23:16.516Z,4.48
2023-02-26T08:24:16.516Z,4.97
2023-02-26T08:25:16.494Z,5.26
2023-02-26T08:26:16.483Z,5.64
2023-02-26T08:27:16.482Z,5.14
2023-02-26T08:28:16.483Z,5.04
2023-02-26T08:29:16.443Z,4.70
2023-02-26T08:30:16.443Z,4.01
2023-02-26T08:31:16.522Z,4.26
2023-02-26T08:32:16.566Z,3.96
2023-02-26T08:33:16.417Z,4.31
2023-02-26T08:34:16.426Z,4.42
2023-02-26T08:35:16.384Z,4.45
2023-02-26T08:36:16.384Z,4.50
2023-02-26T08:37:16.371Z,4.84
2023-02-26T08:38:16.353Z,5.89
2023-02-26T08:39:16.341Z,6.20
2023-02-26T08:40:16.349Z,6.35
2023-02-26T08:41:16.335Z,6.60
2023-02-26T08:42:16.326Z,6.12
2023-02-26T08:43:16.303Z,5.72
2023-02-26T08:44:16.294Z,5.90
2023-02-26T08:45:16.278Z,5.75
2023-02-26T08:46:16.339Z,5.56
2023-02-26T08:47:21.758Z,5.50
2023-02-26T08:48:17.273Z,5.00
2023-02-26T08:49:16.269Z,5.25
2023-02-26T08:50:16.229Z,5.68
2023-02-26T08:51:16.209Z,5.50
2023-02-26T08:52:16.206Z,5.73
2023-02-26T08:53:16.220Z,6.20
2023-02-26T08:54:16.174Z,5.65
2023-02-26T08:55:16.246Z,5.76
2023-02-26T08:56:16.168Z,5.68
2023-02-26T08:57:16.197Z,5.32
2023-02-26T08:58:16.136Z,6.04
2023-02-26T08:59:16.115Z,6.27
2023-02-26T09:00:16.105Z,6.16
2023-02-26T09:01:16.096Z,5.73
2023-02-26T09:02:16.097Z,6.09
2023-02-26T09:03:16.184Z,5.56
2023-02-26T09:04:16.066Z,5.44
2023-02-26T09:05:16.057Z,5.62
2023-02-26T09:06:16.044Z,6.14
2023-02-26T09:07:16.034Z,5.99
2023-02-26T09:08:16.026Z,6.07
2023-02-26T09:09:16.123Z,5.51
2023-02-26T09:10:16.016Z,5.80
2023-02-26T09:11:15.989Z,6.05
2023-02-26T09:12:15.987Z,5.76
2023-02-26T09:13:15.976Z,5.65
2023-02-26T09:14:15.954Z,5.10
2023-02-26T09:15:15.956Z,5.28
2023-02-26T09:16:15.985Z,5.66
2023-02-26T09:17:15.914Z,5.87
2023-02-26T09:18:15.906Z,5.91
2023-02-26T09:19:15.894Z,6.19
2023-02-26T09:20:15.885Z,6.51
2023-02-26T09:21:15.884Z,6.08
2023-02-26T09:22:15.867Z,5.54
2023-02-26T09:23:15.869Z,5.71
2023-02-26T09:24:15.835Z,6.16
2023-02-26T09:25:15.847Z,6.70
2023-02-26T09:26:15.843Z,6.54
2023-02-26T09:27:15.819Z,6.20
2023-02-26T09:28:15.836Z,5.98
2023-02-26T09:29:15.798Z,5.75
2023-02-26T09:30:15.783Z,5.68
2023-02-26T09:31:15.900Z,4.89
2023-02-26T09:32:15.890Z,4.67
2023-02-26T09:33:15.764Z,4.31
2023-02-26T09:34:15.726Z,4.55
2023-02-26T09:35:15.724Z,5.02
2023-02-26T09:36:23.052Z,5.38
2023-02-26T09:37:15.719Z,4.99
2023-02-26T09:38:15.671Z,4.71
2023-02-26T09:39:15.669Z,4.45
2023-02-26T09:40:15.669Z,4.63
2023-02-26T09:41:15.652Z,4.75
2023-02-26T09:42:15.629Z,4.93
2023-02-26T09:43:15.660Z,4.74
2023-02-26T09:44:15.612Z,5.07
2023-02-26T09:45:15.598Z,5.30
2023-02-26T09:46:15.594Z,5.62
2023-02-26T09:47:15.579Z,5.48
2023-02-26T09:48:15.575Z,5.80
2023-02-26T09:49:15.658Z,6.07
2023-02-26T09:50:15.540Z,5.66
2023-02-26T09:51:15.539Z,5.26
2023-02-26T09:52:15.519Z,5.39
2023-02-26T09:53:15.519Z,5.79
2023-02-26T09:54:15.529Z,5.76
2023-02-26T09:55:15.522Z,5.99
2023-02-26T09:56:15.479Z,5.94
2023-02-26T09:57:15.486Z,5.65
2023-02-26T09:58:16.258Z,5.84
2023-02-26T09:59:15.442Z,5.53
2023-02-26T10:00:15.454Z,5.23
2023-02-26T10:01:15.422Z,5.14
2023-02-26T10:02:15.417Z,5.35
2023-02-26T10:03:15.403Z,5.64
2023-02-26T10:04:15.406Z,5.71
2023-02-26T10:05:15.394Z,5.72
2023-02-26T10:06:15.394Z,5.48
2023-02-26T10:07:15.362Z,5.46
2023-02-26T10:08:15.344Z,5.43
2023-02-26T10:09:15.333Z,5.46
2023-02-26T10:10:15.328Z,5.51
2023-02-26T10:11:15.314Z,5.35
2023-02-26T10:12:15.324Z,5.30
2023-02-26T10:13:15.295Z,5.32
2023-02-26T10:14:15.280Z,5.26
2023-02-26T10:15:15.277Z,5.29
2023-02-26T10:16:15.279Z,5.48
2023-02-26T10:17:15.263Z,5.51
2023-02-26T10:18:15.235Z,5.72
2023-02-26T10:19:15.224Z,5.44
2023-02-26T10:20:15.411Z,5.05
2023-02-26T10:21:15.368Z,5.17
2023-02-26T10:22:15.394Z,5.33
2023-02-26T10:23:15.210Z,5.44
2023-02-26T10:24:15.166Z,5.51
2023-02-26T10:25:15.156Z,5.32
2023-02-26T10:26:15.149Z,5.15
2023-02-26T10:27:15.217Z,5.10
2023-02-26T10:28:15.142Z,5.23
2023-02-26T10:29:15.183Z,5.15
2023-02-26T10:30:15.117Z,5.25
2023-02-26T10:31:15.120Z,5.33
2023-02-26T10:32:15.329Z,5.32
2023-02-26T10:33:15.178Z,5.29
2023-02-26T10:34:15.055Z,5.36
2023-02-26T10:35:15.089Z,5.65
2023-02-26T10:36:15.027Z,5.93
2023-02-26T10:37:15.065Z,5.99
2023-02-26T10:38:15.007Z,6.11
2023-02-26T10:39:15.007Z,5.64
2023-02-26T10:40:14.985Z,5.51
2023-02-26T10:41:14.996Z,5.59
2023-02-26T10:42:14.968Z,5.65
2023-02-26T10:43:15.076Z,5.59
2023-02-26T10:44:14.944Z,5.33
2023-02-26T10:45:14.935Z,5.35
2023-02-26T10:46:15.042Z,5.17
2023-02-26T10:47:14.935Z,5.21
2023-02-26T10:48:14.906Z,5.50
2023-02-26T10:49:14.894Z,5.82
2023-02-26T10:50:14.881Z,5.73
2023-02-26T10:51:14.872Z,6.07
2023-02-26T10:52:14.863Z,6.05
2023-02-26T10:53:14.880Z,5.93
2023-02-26T10:54:14.834Z,5.79
2023-02-26T10:55:14.824Z,5.84
2023-02-26T10:56:14.826Z,5.82
2023-02-26T10:57:14.813Z,5.94
2023-02-26T10:58:14.792Z,6.11
2023-02-26T10:59:16.631Z,6.39
2023-02-26T11:00:14.766Z,6.33
2023-02-26T11:01:14.816Z,6.30
2023-02-26T11:02:14.767Z,6.14
2023-02-26T11:03:14.757Z,6.07
2023-02-26T11:04:14.725Z,5.98
2023-02-26T11:05:14.737Z,5.83
2023-02-26T11:06:14.742Z,5.84
2023-02-26T11:07:14.698Z,5.83
2023-02-26T11:08:14.712Z,5.98
2023-02-26T11:09:14.677Z,6.05
2023-02-26T11:10:14.699Z,6.26
2023-02-26T11:11:14.658Z,6.31
2023-02-26T11:12:14.658Z,6.27
2023-02-26T11:13:14.639Z,6.39
2023-02-26T11:14:14.633Z,6.46
2023-02-26T11:15:14.608Z,6.22
2023-02-26T11:16:14.680Z,6.27
2023-02-26T11:17:14.606Z,6.22
2023-02-26T11:18:14.579Z,6.19
2023-02-26T11:19:14.577Z,6.27
2023-02-26T11:20:14.570Z,6.52
2023-02-26T11:21:14.553Z,6.57
2023-02-26T11:22:14.558Z,6.49
2023-02-26T11:23:14.538Z,6.38
2023-02-26T11:24:14.509Z,6.27
2023-02-26T11:25:14.499Z,5.75
2023-02-26T11:26:14.490Z,5.61
2023-02-26T11:27:14.479Z,5.79
2023-02-26T11:28:14.501Z,5.83
2023-02-26T11:29:14.459Z,5.64
2023-02-26T11:30:14.439Z,5.61
2023-02-26T11:31:14.547Z,5.72
2023-02-26T11:32:14.483Z,5.98
2023-02-26T11:33:14.416Z,5.73
2023-02-26T11:34:14.436Z,5.76
2023-02-26T11:35:14.389Z,6.04
2023-02-26T11:36:14.380Z,6.36
2023-02-26T11:37:14.379Z,6.62
2023-02-26T11:38:16.917Z,6.42
2023-02-26T11:39:14.348Z,6.12
2023-02-26T11:40:14.401Z,6.12
2023-02-26T11:41:14.339Z,6.33
2023-02-26T11:42:14.333Z,6.39
2023-02-26T11:43:14.310Z,6.38
2023-02-26T11:44:14.299Z,6.48
2023-02-26T11:45:14.309Z,6.66
2023-02-26T11:46:14.313Z,6.60
2023-02-26T11:47:14.259Z,6.41
2023-02-26T11:48:14.246Z,6.66
2023-02-26T11:49:14.235Z,6.82
2023-02-26T11:50:14.355Z,6.70
2023-02-26T11:51:14.236Z,6.48
2023-02-26T11:52:14.217Z,6.26
2023-02-26T11:53:14.198Z,5.84
2023-02-26T11:54:14.192Z,6.04
2023-02-26T11:55:14.166Z,6.24
2023-02-26T11:56:14.154Z,6.09
2023-02-26T11:57:14.162Z,5.99
2023-02-26T11:58:14.134Z,6.33
2023-02-26T11:59:14.164Z,6.35
2023-02-26T12:00:14.133Z,6.33
2023-02-26T12:01:14.102Z,6.14
2023-02-26T12:02:14.203Z,6.41
2023-02-26T12:03:14.083Z,6.33
2023-02-26T12:04:14.164Z,6.20
2023-02-26T12:05:14.051Z,6.09
2023-02-26T12:06:14.041Z,6.22
2023-02-26T12:07:14.046Z,6.01
2023-02-26T12:08:14.031Z,6.01
2023-02-26T12:09:14.020Z,6.12
2023-02-26T12:10:14.001Z,6.01
2023-02-26T12:11:14.108Z,5.86
2023-02-26T12:12:13.971Z,5.87
2023-02-26T12:13:13.973Z,5.68
2023-02-26T12:14:13.970Z,5.54
2023-02-26T12:15:13.973Z,5.80
2023-02-26T12:16:13.969Z,6.12
2023-02-26T12:17:13.920Z,6.26
2023-02-26T12:18:15.731Z,6.08
2023-02-26T12:19:13.920Z,6.08
2023-02-26T12:20:13.903Z,6.02
2023-02-26T12:21:13.882Z,6.05
2023-02-26T12:22:13.929Z,6.09
2023-02-26T12:23:13.866Z,6.11
2023-02-26T12:24:13.850Z,6.09
2023-02-26T12:25:13.901Z,6.07
2023-02-26T12:26:13.851Z,5.90
2023-02-26T12:27:13.817Z,6.11
2023-02-26T12:28:13.800Z,6.11
2023-02-26T12:29:13.798Z,6.16
2023-02-26T12:30:13.787Z,6.26
2023-02-26T12:31:13.853Z,6.09
2023-02-26T12:32:14.028Z,5.90
2023-02-26T12:33:13.761Z,5.93
2023-02-26T12:34:13.742Z,6.08
2023-02-26T12:35:13.741Z,6.08
2023-02-26T12:36:13.724Z,6.11
2023-02-26T12:37:13.735Z,6.17
2023-02-26T12:38:15.338Z,5.86
2023-02-26T12:39:13.689Z,5.75
2023-02-26T12:40:13.677Z,5.73
2023-02-26T12:41:13.670Z,5.72
2023-02-26T12:42:13.654Z,5.75
2023-02-26T12:43:13.665Z,5.59
2023-02-26T12:44:13.675Z,5.51
2023-02-26T12:45:13.637Z,5.54
2023-02-26T12:46:13.829Z,5.56
2023-02-26T12:47:13.604Z,5.69
2023-02-26T12:48:13.594Z,5.87
2023-02-26T12:49:13.604Z,6.02
2023-02-26T12:50:13.578Z,6.01
2023-02-26T12:51:13.572Z,6.17
2023-02-26T12:52:13.544Z,6.01
2023-02-26T12:53:13.546Z,6.08
2023-02-26T12:54:13.524Z,5.91
2023-02-26T12:55:13.536Z,5.80
2023-02-26T12:56:13.518Z,5.87
2023-02-26T12:57:13.494Z,6.19
2023-02-26T12:58:13.536Z,6.38
2023-02-26T12:59:13.474Z,6.54
2023-02-26T13:00:13.500Z,6.38
2023-02-26T13:01:13.503Z,6.46
2023-02-26T13:02:13.447Z,6.75
2023-02-26T13:03:13.434Z,6.81
2023-02-26T13:04:13.476Z,6.84
2023-02-26T13:05:13.416Z,6.45
2023-02-26T13:06:13.427Z,6.17
2023-02-26T13:07:13.385Z,6.36
2023-02-26T13:08:13.375Z,6.42
2023-02-26T13:09:13.365Z,6.20
2023-02-26T13:10:13.346Z,5.91
2023-02-26T13:11:13.343Z,5.90
2023-02-26T13:12:13.345Z,5.80
2023-02-26T13:13:13.318Z,5.76
2023-02-26T13:14:13.315Z,5.66
2023-02-26T13:15:13.295Z,5.65
2023-02-26T13:16:13.346Z,5.87
2023-02-26T13:17:13.275Z,5.84
2023-02-26T13:18:13.274Z,5.97